Maquinchao, Argentina
Current Conditions -  °F | °C
As of 1:00 PM on Thursday 23 Oct 2014 (Local Time) from SAZS Reporting Station
Clear Clear  
Wind Chill: 64°   Ceiling: Unl
Heat Index: 64°   Visibility: 6mi
Dew Point: 36°   Wind: 3mph
Humidity: 34%   Direction: NA
Pressure: 30.12"   Gusts: NA
Location:  41.25°S, 68.72°W
Report Text: SAZS 231600Z VRB03KT CAVOK 18/02 Q1020
Loading
Personal Weather Stations






























Interactive Weather Map
Tropical Storm Tracking
New forecast layout! Learn more

10-Day Weather Forecast

Advertisements
Track Severe Weather on mobile